sensor_id;sensor_type;location;lat;lon;timestamp;P1;durP1;ratioP1;P2;durP2;ratioP2
28311;SDS011;15572;48.810;9.148;2023-03-31T00:03:21;8.07;;;2.33;;
28311;SDS011;15572;48.810;9.148;2023-03-31T00:08:18;4.57;;;1.50;;
28311;SDS011;15572;48.810;9.148;2023-03-31T00:13:16;5.97;;;1.70;;
28311;SDS011;15572;48.810;9.148;2023-03-31T00:18:13;4.80;;;1.67;;
28311;SDS011;15572;48.810;9.148;2023-03-31T00:23:09;3.77;;;1.50;;
28311;SDS011;15572;48.810;9.148;2023-03-31T00:28:08;5.90;;;1.80;;
28311;SDS011;15572;48.810;9.148;2023-03-31T00:33:06;5.53;;;1.40;;
28311;SDS011;15572;48.810;9.148;2023-03-31T00:38:03;4.97;;;1.50;;
28311;SDS011;15572;48.810;9.148;2023-03-31T00:43:15;6.13;;;1.70;;
28311;SDS011;15572;48.810;9.148;2023-03-31T00:48:24;7.87;;;1.60;;
28311;SDS011;15572;48.810;9.148;2023-03-31T00:53:22;4.87;;;1.93;;
28311;SDS011;15572;48.810;9.148;2023-03-31T00:58:21;4.60;;;1.60;;
28311;SDS011;15572;48.810;9.148;2023-03-31T01:03:23;4.40;;;1.80;;
28311;SDS011;15572;48.810;9.148;2023-03-31T01:08:20;9.47;;;1.80;;
28311;SDS011;15572;48.810;9.148;2023-03-31T01:13:21;6.83;;;2.00;;
28311;SDS011;15572;48.810;9.148;2023-03-31T01:18:20;11.80;;;2.10;;
28311;SDS011;15572;48.810;9.148;2023-03-31T01:23:38;6.47;;;1.50;;
28311;SDS011;15572;48.810;9.148;2023-03-31T01:28:48;6.50;;;2.03;;
28311;SDS011;15572;48.810;9.148;2023-03-31T01:39:45;5.17;;;1.80;;
28311;SDS011;15572;48.810;9.148;2023-03-31T01:44:52;3.50;;;1.40;;
28311;SDS011;15572;48.810;9.148;2023-03-31T01:50:03;6.17;;;1.73;;
28311;SDS011;15572;48.810;9.148;2023-03-31T01:55:05;4.37;;;1.40;;
28311;SDS011;15572;48.810;9.148;2023-03-31T02:00:07;4.40;;;1.20;;
28311;SDS011;15572;48.810;9.148;2023-03-31T02:05:06;4.20;;;1.20;;
28311;SDS011;15572;48.810;9.148;2023-03-31T02:10:08;3.73;;;1.27;;
28311;SDS011;15572;48.810;9.148;2023-03-31T02:15:08;5.13;;;1.60;;
28311;SDS011;15572;48.810;9.148;2023-03-31T02:20:09;4.47;;;1.60;;
28311;SDS011;15572;48.810;9.148;2023-03-31T02:25:11;6.80;;;1.60;;
28311;SDS011;15572;48.810;9.148;2023-03-31T02:30:11;8.97;;;1.73;;
28311;SDS011;15572;48.810;9.148;2023-03-31T02:35:10;4.37;;;1.47;;
28311;SDS011;15572;48.810;9.148;2023-03-31T02:40:08;5.63;;;2.10;;
28311;SDS011;15572;48.810;9.148;2023-03-31T02:50:34;6.93;;;1.80;;
28311;SDS011;15572;48.810;9.148;2023-03-31T02:55:44;4.90;;;1.97;;
28311;SDS011;15572;48.810;9.148;2023-03-31T03:00:55;8.63;;;2.23;;
28311;SDS011;15572;48.810;9.148;2023-03-31T03:06:01;7.43;;;2.40;;
28311;SDS011;15572;48.810;9.148;2023-03-31T03:16:04;5.40;;;1.87;;
28311;SDS011;15572;48.810;9.148;2023-03-31T03:21:07;5.47;;;2.10;;
28311;SDS011;15572;48.810;9.148;2023-03-31T03:26:04;4.73;;;2.03;;
28311;SDS011;15572;48.810;9.148;2023-03-31T03:31:00;6.97;;;2.57;;
28311;SDS011;15572;48.810;9.148;2023-03-31T03:35:58;6.33;;;2.00;;
28311;SDS011;15572;48.810;9.148;2023-03-31T03:40:55;8.43;;;2.30;;
28311;SDS011;15572;48.810;9.148;2023-03-31T03:45:51;7.03;;;2.33;;
28311;SDS011;15572;48.810;9.148;2023-03-31T03:50:48;7.20;;;2.30;;
28311;SDS011;15572;48.810;9.148;2023-03-31T03:55:45;7.20;;;2.57;;
28311;SDS011;15572;48.810;9.148;2023-03-31T04:00:43;6.40;;;2.50;;
28311;SDS011;15572;48.810;9.148;2023-03-31T04:05:40;5.87;;;2.40;;
28311;SDS011;15572;48.810;9.148;2023-03-31T04:10:36;6.97;;;2.70;;
28311;SDS011;15572;48.810;9.148;2023-03-31T04:15:34;5.67;;;2.80;;
28311;SDS011;15572;48.810;9.148;2023-03-31T04:20:31;5.37;;;2.37;;
28311;SDS011;15572;48.810;9.148;2023-03-31T04:25:28;4.30;;;2.37;;
28311;SDS011;15572;48.810;9.148;2023-03-31T04:30:25;6.07;;;2.90;;
28311;SDS011;15572;48.810;9.148;2023-03-31T04:35:27;10.87;;;3.23;;
28311;SDS011;15572;48.810;9.148;2023-03-31T04:40:36;5.67;;;2.80;;
28311;SDS011;15572;48.810;9.148;2023-03-31T04:45:34;6.20;;;3.30;;
28311;SDS011;15572;48.810;9.148;2023-03-31T04:50:31;7.40;;;3.20;;
28311;SDS011;15572;48.810;9.148;2023-03-31T04:55:28;9.73;;;3.10;;
28311;SDS011;15572;48.810;9.148;2023-03-31T05:00:25;8.13;;;3.10;;
28311;SDS011;15572;48.810;9.148;2023-03-31T05:05:22;6.83;;;3.00;;
28311;SDS011;15572;48.810;9.148;2023-03-31T05:10:20;10.03;;;2.97;;
28311;SDS011;15572;48.810;9.148;2023-03-31T05:15:17;7.60;;;3.00;;
28311;SDS011;15572;48.810;9.148;2023-03-31T05:20:14;6.83;;;3.20;;
28311;SDS011;15572;48.810;9.148;2023-03-31T05:25:12;8.30;;;3.27;;
28311;SDS011;15572;48.810;9.148;2023-03-31T05:30:14;7.83;;;3.60;;
28311;SDS011;15572;48.810;9.148;2023-03-31T05:35:11;8.93;;;3.47;;
28311;SDS011;15572;48.810;9.148;2023-03-31T05:40:08;8.37;;;3.53;;
28311;SDS011;15572;48.810;9.148;2023-03-31T05:45:06;9.90;;;4.30;;
28311;SDS011;15572;48.810;9.148;2023-03-31T05:50:05;6.57;;;4.03;;
28311;SDS011;15572;48.810;9.148;2023-03-31T05:55:03;12.33;;;4.40;;
28311;SDS011;15572;48.810;9.148;2023-03-31T06:00:00;11.97;;;4.60;;
28311;SDS011;15572;48.810;9.148;2023-03-31T06:04:56;11.63;;;4.57;;
28311;SDS011;15572;48.810;9.148;2023-03-31T06:09:54;11.90;;;5.00;;
28311;SDS011;15572;48.810;9.148;2023-03-31T06:14:50;7.60;;;4.33;;
28311;SDS011;15572;48.810;9.148;2023-03-31T06:19:47;9.30;;;4.90;;
28311;SDS011;15572;48.810;9.148;2023-03-31T06:24:43;11.93;;;5.00;;
28311;SDS011;15572;48.810;9.148;2023-03-31T06:29:41;10.90;;;5.00;;
28311;SDS011;15572;48.810;9.148;2023-03-31T06:34:38;10.20;;;5.17;;
28311;SDS011;15572;48.810;9.148;2023-03-31T06:39:34;9.17;;;4.73;;
28311;SDS011;15572;48.810;9.148;2023-03-31T06:44:30;11.00;;;4.87;;
28311;SDS011;15572;48.810;9.148;2023-03-31T06:49:28;10.77;;;4.60;;
28311;SDS011;15572;48.810;9.148;2023-03-31T06:54:25;12.07;;;5.10;;
28311;SDS011;15572;48.810;9.148;2023-03-31T06:59:21;9.70;;;4.97;;
28311;SDS011;15572;48.810;9.148;2023-03-31T07:04:18;12.60;;;5.20;;
28311;SDS011;15572;48.810;9.148;2023-03-31T07:09:16;13.83;;;5.43;;
28311;SDS011;15572;48.810;9.148;2023-03-31T07:14:15;11.40;;;5.20;;
28311;SDS011;15572;48.810;9.148;2023-03-31T07:19:11;8.37;;;4.33;;
28311;SDS011;15572;48.810;9.148;2023-03-31T07:24:09;8.67;;;4.00;;
28311;SDS011;15572;48.810;9.148;2023-03-31T07:29:07;6.10;;;3.73;;
28311;SDS011;15572;48.810;9.148;2023-03-31T07:34:03;6.87;;;3.17;;
28311;SDS011;15572;48.810;9.148;2023-03-31T07:39:00;4.17;;;2.00;;
28311;SDS011;15572;48.810;9.148;2023-03-31T07:43:57;4.33;;;2.23;;
28311;SDS011;15572;48.810;9.148;2023-03-31T07:48:55;1.93;;;1.37;;
28311;SDS011;15572;48.810;9.148;2023-03-31T07:53:52;3.67;;;2.00;;
28311;SDS011;15572;48.810;9.148;2023-03-31T07:58:49;2.70;;;1.40;;
28311;SDS011;15572;48.810;9.148;2023-03-31T08:03:47;1.80;;;1.40;;
28311;SDS011;15572;48.810;9.148;2023-03-31T08:08:45;2.90;;;1.13;;
28311;SDS011;15572;48.810;9.148;2023-03-31T08:13:41;1.63;;;1.10;;
28311;SDS011;15572;48.810;9.148;2023-03-31T08:18:38;4.07;;;1.20;;
28311;SDS011;15572;48.810;9.148;2023-03-31T08:23:34;3.07;;;1.23;;
28311;SDS011;15572;48.810;9.148;2023-03-31T08:28:32;4.10;;;1.10;;
28311;SDS011;15572;48.810;9.148;2023-03-31T08:33:29;1.87;;;1.30;;
28311;SDS011;15572;48.810;9.148;2023-03-31T08:38:25;3.07;;;1.20;;
28311;SDS011;15572;48.810;9.148;2023-03-31T08:43:24;1.47;;;0.90;;
28311;SDS011;15572;48.810;9.148;2023-03-31T08:48:27;1.87;;;1.10;;
28311;SDS011;15572;48.810;9.148;2023-03-31T08:53:27;3.17;;;1.30;;
28311;SDS011;15572;48.810;9.148;2023-03-31T08:58:28;2.57;;;0.90;;
28311;SDS011;15572;48.810;9.148;2023-03-31T09:03:33;3.10;;;1.10;;
28311;SDS011;15572;48.810;9.148;2023-03-31T09:08:37;5.20;;;1.30;;
28311;SDS011;15572;48.810;9.148;2023-03-31T09:19:02;2.77;;;0.93;;
28311;SDS011;15572;48.810;9.148;2023-03-31T09:24:12;2.23;;;0.80;;
28311;SDS011;15572;48.810;9.148;2023-03-31T09:29:15;2.97;;;1.13;;
28311;SDS011;15572;48.810;9.148;2023-03-31T09:34:16;1.87;;;1.20;;
28311;SDS011;15572;48.810;9.148;2023-03-31T09:39:19;2.10;;;1.17;;
28311;SDS011;15572;48.810;9.148;2023-03-31T09:44:23;3.70;;;1.07;;
28311;SDS011;15572;48.810;9.148;2023-03-31T09:49:24;4.43;;;1.40;;
28311;SDS011;15572;48.810;9.148;2023-03-31T09:54:23;2.70;;;0.80;;
28311;SDS011;15572;48.810;9.148;2023-03-31T09:59:29;5.90;;;1.53;;
28311;SDS011;15572;48.810;9.148;2023-03-31T10:04:29;3.87;;;1.00;;
28311;SDS011;15572;48.810;9.148;2023-03-31T10:09:28;5.63;;;1.23;;
28311;SDS011;15572;48.810;9.148;2023-03-31T10:14:32;5.13;;;1.40;;
28311;SDS011;15572;48.810;9.148;2023-03-31T10:19:35;2.77;;;0.80;;
28311;SDS011;15572;48.810;9.148;2023-03-31T10:24:35;2.50;;;0.90;;
28311;SDS011;15572;48.810;9.148;2023-03-31T10:29:33;4.00;;;1.40;;
28311;SDS011;15572;48.810;9.148;2023-03-31T10:34:39;4.83;;;1.20;;
28311;SDS011;15572;48.810;9.148;2023-03-31T10:39:38;1.53;;;0.67;;
28311;SDS011;15572;48.810;9.148;2023-03-31T10:44:35;2.93;;;0.97;;
28311;SDS011;15572;48.810;9.148;2023-03-31T10:49:36;2.33;;;0.80;;
28311;SDS011;15572;48.810;9.148;2023-03-31T10:54:35;5.50;;;1.30;;
28311;SDS011;15572;48.810;9.148;2023-03-31T10:59:35;5.20;;;1.30;;
28311;SDS011;15572;48.810;9.148;2023-03-31T11:04:41;5.23;;;1.33;;
28311;SDS011;15572;48.810;9.148;2023-03-31T11:09:49;2.47;;;1.27;;
28311;SDS011;15572;48.810;9.148;2023-03-31T11:15:01;3.90;;;0.80;;
28311;SDS011;15572;48.810;9.148;2023-03-31T11:20:10;3.33;;;0.80;;
28311;SDS011;15572;48.810;9.148;2023-03-31T11:25:17;0.30;;;0.30;;
28311;SDS011;15572;48.810;9.148;2023-03-31T11:30:19;1.63;;;0.50;;
28311;SDS011;15572;48.810;9.148;2023-03-31T11:35:22;2.53;;;0.70;;
28311;SDS011;15572;48.810;9.148;2023-03-31T11:40:36;1.53;;;0.50;;
28311;SDS011;15572;48.810;9.148;2023-03-31T11:45:42;0.83;;;0.43;;
28311;SDS011;15572;48.810;9.148;2023-03-31T11:50:41;1.17;;;0.53;;
28311;SDS011;15572;48.810;9.148;2023-03-31T11:55:42;2.13;;;0.60;;
28311;SDS011;15572;48.810;9.148;2023-03-31T12:00:41;1.07;;;0.50;;
28311;SDS011;15572;48.810;9.148;2023-03-31T12:05:43;0.80;;;0.60;;
28311;SDS011;15572;48.810;9.148;2023-03-31T12:10:45;0.70;;;0.30;;
28311;SDS011;15572;48.810;9.148;2023-03-31T12:15:48;0.30;;;0.30;;
28311;SDS011;15572;48.810;9.148;2023-03-31T12:20:55;2.03;;;0.60;;
28311;SDS011;15572;48.810;9.148;2023-03-31T12:25:59;1.30;;;0.60;;
28311;SDS011;15572;48.810;9.148;2023-03-31T12:31:02;1.27;;;0.60;;
28311;SDS011;15572;48.810;9.148;2023-03-31T12:36:05;0.93;;;0.50;;
28311;SDS011;15572;48.810;9.148;2023-03-31T12:41:14;1.93;;;0.60;;
28311;SDS011;15572;48.810;9.148;2023-03-31T12:46:20;2.13;;;0.70;;
28311;SDS011;15572;48.810;9.148;2023-03-31T12:51:35;1.97;;;0.63;;
28311;SDS011;15572;48.810;9.148;2023-03-31T13:02:20;2.07;;;0.87;;
28311;SDS011;15572;48.810;9.148;2023-03-31T13:07:35;2.87;;;0.90;;
28311;SDS011;15572;48.810;9.148;2023-03-31T13:12:37;1.03;;;0.57;;
28311;SDS011;15572;48.810;9.148;2023-03-31T13:17:34;2.60;;;0.70;;
28311;SDS011;15572;48.810;9.148;2023-03-31T13:22:32;4.40;;;0.70;;
28311;SDS011;15572;48.810;9.148;2023-03-31T13:27:32;0.87;;;0.47;;
28311;SDS011;15572;48.810;9.148;2023-03-31T13:32:30;1.60;;;0.50;;
28311;SDS011;15572;48.810;9.148;2023-03-31T13:43:03;1.10;;;0.50;;
28311;SDS011;15572;48.810;9.148;2023-03-31T13:48:19;3.40;;;0.70;;
28311;SDS011;15572;48.810;9.148;2023-03-31T13:53:31;1.53;;;0.50;;
28311;SDS011;15572;48.810;9.148;2023-03-31T14:04:33;0.50;;;0.50;;
28311;SDS011;15572;48.810;9.148;2023-03-31T14:09:41;0.90;;;0.40;;
28311;SDS011;15572;48.810;9.148;2023-03-31T14:14:43;1.07;;;0.50;;
28311;SDS011;15572;48.810;9.148;2023-03-31T14:19:49;1.63;;;0.40;;
28311;SDS011;15572;48.810;9.148;2023-03-31T14:24:54;0.90;;;0.70;;
28311;SDS011;15572;48.810;9.148;2023-03-31T14:30:00;1.80;;;0.60;;
28311;SDS011;15572;48.810;9.148;2023-03-31T14:35:07;1.50;;;0.50;;
28311;SDS011;15572;48.810;9.148;2023-03-31T14:40:20;1.03;;;0.40;;
28311;SDS011;15572;48.810;9.148;2023-03-31T14:45:18;0.97;;;0.57;;
28311;SDS011;15572;48.810;9.148;2023-03-31T14:50:20;1.10;;;0.43;;
28311;SDS011;15572;48.810;9.148;2023-03-31T14:55:20;0.70;;;0.50;;
28311;SDS011;15572;48.810;9.148;2023-03-31T15:00:19;1.10;;;0.67;;
28311;SDS011;15572;48.810;9.148;2023-03-31T15:05:24;2.97;;;0.60;;
28311;SDS011;15572;48.810;9.148;2023-03-31T15:10:24;1.20;;;0.63;;
28311;SDS011;15572;48.810;9.148;2023-03-31T15:15:25;1.27;;;0.57;;
28311;SDS011;15572;48.810;9.148;2023-03-31T15:20:34;1.80;;;0.63;;
28311;SDS011;15572;48.810;9.148;2023-03-31T15:25:32;1.60;;;0.70;;
28311;SDS011;15572;48.810;9.148;2023-03-31T15:30:31;1.60;;;0.73;;
28311;SDS011;15572;48.810;9.148;2023-03-31T15:35:30;3.53;;;0.60;;
28311;SDS011;15572;48.810;9.148;2023-03-31T15:40:28;1.13;;;0.83;;
28311;SDS011;15572;48.810;9.148;2023-03-31T15:45:37;1.27;;;0.50;;
28311;SDS011;15572;48.810;9.148;2023-03-31T15:50:43;2.30;;;0.50;;
28311;SDS011;15572;48.810;9.148;2023-03-31T15:55:40;1.53;;;0.40;;
28311;SDS011;15572;48.810;9.148;2023-03-31T16:00:40;2.33;;;0.70;;
28311;SDS011;15572;48.810;9.148;2023-03-31T16:05:41;2.27;;;0.77;;
28311;SDS011;15572;48.810;9.148;2023-03-31T16:10:45;1.27;;;0.60;;
28311;SDS011;15572;48.810;9.148;2023-03-31T16:15:45;2.17;;;0.73;;
28311;SDS011;15572;48.810;9.148;2023-03-31T16:20:49;4.23;;;1.03;;
28311;SDS011;15572;48.810;9.148;2023-03-31T16:25:50;2.43;;;0.70;;
28311;SDS011;15572;48.810;9.148;2023-03-31T16:30:46;1.60;;;0.50;;
28311;SDS011;15572;48.810;9.148;2023-03-31T16:35:45;2.40;;;0.60;;
28311;SDS011;15572;48.810;9.148;2023-03-31T16:40:45;2.37;;;0.70;;
28311;SDS011;15572;48.810;9.148;2023-03-31T16:45:43;0.93;;;0.60;;
28311;SDS011;15572;48.810;9.148;2023-03-31T16:50:42;2.57;;;0.70;;
28311;SDS011;15572;48.810;9.148;2023-03-31T16:55:40;2.00;;;0.70;;
28311;SDS011;15572;48.810;9.148;2023-03-31T17:00:38;1.00;;;0.40;;
28311;SDS011;15572;48.810;9.148;2023-03-31T17:05:36;0.40;;;0.40;;
28311;SDS011;15572;48.810;9.148;2023-03-31T17:10:35;1.90;;;0.50;;
28311;SDS011;15572;48.810;9.148;2023-03-31T17:15:34;2.23;;;0.47;;
28311;SDS011;15572;48.810;9.148;2023-03-31T17:20:31;1.33;;;0.50;;
28311;SDS011;15572;48.810;9.148;2023-03-31T17:25:28;0.90;;;0.63;;
28311;SDS011;15572;48.810;9.148;2023-03-31T17:30:25;1.93;;;0.70;;
28311;SDS011;15572;48.810;9.148;2023-03-31T17:35:24;3.23;;;0.90;;
28311;SDS011;15572;48.810;9.148;2023-03-31T17:40:21;1.80;;;0.67;;
28311;SDS011;15572;48.810;9.148;2023-03-31T17:45:18;2.43;;;0.77;;
28311;SDS011;15572;48.810;9.148;2023-03-31T17:50:15;1.63;;;0.70;;
28311;SDS011;15572;48.810;9.148;2023-03-31T17:55:15;1.93;;;0.60;;
28311;SDS011;15572;48.810;9.148;2023-03-31T18:00:12;1.47;;;0.70;;
28311;SDS011;15572;48.810;9.148;2023-03-31T18:05:10;2.97;;;1.10;;
28311;SDS011;15572;48.810;9.148;2023-03-31T18:10:07;2.57;;;0.80;;
28311;SDS011;15572;48.810;9.148;2023-03-31T18:15:06;0.80;;;0.80;;
28311;SDS011;15572;48.810;9.148;2023-03-31T18:20:05;1.80;;;1.03;;
28311;SDS011;15572;48.810;9.148;2023-03-31T18:25:02;1.47;;;0.80;;
28311;SDS011;15572;48.810;9.148;2023-03-31T18:29:59;1.70;;;0.80;;
28311;SDS011;15572;48.810;9.148;2023-03-31T18:34:57;1.90;;;0.97;;
28311;SDS011;15572;48.810;9.148;2023-03-31T18:39:53;3.67;;;1.87;;
28311;SDS011;15572;48.810;9.148;2023-03-31T18:44:50;1.50;;;0.90;;
28311;SDS011;15572;48.810;9.148;2023-03-31T18:49:46;1.90;;;0.90;;
28311;SDS011;15572;48.810;9.148;2023-03-31T18:54:48;1.73;;;1.10;;
28311;SDS011;15572;48.810;9.148;2023-03-31T18:59:45;3.70;;;1.00;;
28311;SDS011;15572;48.810;9.148;2023-03-31T19:04:42;5.50;;;1.37;;
28311;SDS011;15572;48.810;9.148;2023-03-31T19:09:38;3.07;;;1.00;;
28311;SDS011;15572;48.810;9.148;2023-03-31T19:14:36;4.43;;;1.07;;
28311;SDS011;15572;48.810;9.148;2023-03-31T19:19:36;4.03;;;1.10;;
28311;SDS011;15572;48.810;9.148;2023-03-31T19:24:32;3.87;;;1.20;;
28311;SDS011;15572;48.810;9.148;2023-03-31T19:29:29;9.77;;;1.50;;
28311;SDS011;15572;48.810;9.148;2023-03-31T19:34:27;4.03;;;1.10;;
28311;SDS011;15572;48.810;9.148;2023-03-31T19:39:23;2.77;;;0.90;;
28311;SDS011;15572;48.810;9.148;2023-03-31T19:44:20;5.17;;;1.40;;
28311;SDS011;15572;48.810;9.148;2023-03-31T19:49:17;5.53;;;1.77;;
28311;SDS011;15572;48.810;9.148;2023-03-31T19:54:15;7.23;;;2.50;;
28311;SDS011;15572;48.810;9.148;2023-03-31T19:59:11;3.97;;;1.40;;
28311;SDS011;15572;48.810;9.148;2023-03-31T20:04:08;5.87;;;1.60;;
28311;SDS011;15572;48.810;9.148;2023-03-31T20:09:06;4.00;;;1.37;;
28311;SDS011;15572;48.810;9.148;2023-03-31T20:14:04;4.00;;;1.00;;
28311;SDS011;15572;48.810;9.148;2023-03-31T20:19:02;3.97;;;1.17;;
28311;SDS011;15572;48.810;9.148;2023-03-31T20:24:00;3.47;;;1.00;;
28311;SDS011;15572;48.810;9.148;2023-03-31T20:28:57;5.10;;;1.27;;
28311;SDS011;15572;48.810;9.148;2023-03-31T20:33:57;4.67;;;1.20;;
28311;SDS011;15572;48.810;9.148;2023-03-31T20:38:53;2.60;;;1.20;;
28311;SDS011;15572;48.810;9.148;2023-03-31T20:43:51;3.00;;;1.00;;
28311;SDS011;15572;48.810;9.148;2023-03-31T20:48:48;3.30;;;1.03;;
28311;SDS011;15572;48.810;9.148;2023-03-31T20:53:49;3.43;;;1.27;;
28311;SDS011;15572;48.810;9.148;2023-03-31T20:58:47;4.70;;;1.03;;
28311;SDS011;15572;48.810;9.148;2023-03-31T21:03:44;2.33;;;1.00;;
28311;SDS011;15572;48.810;9.148;2023-03-31T21:08:42;4.53;;;1.07;;
28311;SDS011;15572;48.810;9.148;2023-03-31T21:13:41;5.33;;;1.20;;
28311;SDS011;15572;48.810;9.148;2023-03-31T21:18:39;4.93;;;1.30;;
28311;SDS011;15572;48.810;9.148;2023-03-31T21:23:35;5.07;;;1.10;;
28311;SDS011;15572;48.810;9.148;2023-03-31T21:28:33;3.80;;;1.07;;
28311;SDS011;15572;48.810;9.148;2023-03-31T21:33:32;3.33;;;1.30;;
28311;SDS011;15572;48.810;9.148;2023-03-31T21:38:29;1.83;;;0.80;;
28311;SDS011;15572;48.810;9.148;2023-03-31T21:43:26;2.53;;;0.93;;
28311;SDS011;15572;48.810;9.148;2023-03-31T21:48:22;2.63;;;1.00;;
28311;SDS011;15572;48.810;9.148;2023-03-31T21:53:21;2.53;;;0.97;;
28311;SDS011;15572;48.810;9.148;2023-03-31T21:58:18;4.90;;;0.70;;
28311;SDS011;15572;48.810;9.148;2023-03-31T22:03:14;3.07;;;1.20;;
28311;SDS011;15572;48.810;9.148;2023-03-31T22:08:11;3.47;;;0.80;;
28311;SDS011;15572;48.810;9.148;2023-03-31T22:13:08;2.43;;;0.93;;
28311;SDS011;15572;48.810;9.148;2023-03-31T22:18:05;5.03;;;1.10;;
28311;SDS011;15572;48.810;9.148;2023-03-31T22:23:01;2.10;;;0.90;;
28311;SDS011;15572;48.810;9.148;2023-03-31T22:27:58;2.33;;;0.60;;
28311;SDS011;15572;48.810;9.148;2023-03-31T22:32:57;1.23;;;0.53;;
28311;SDS011;15572;48.810;9.148;2023-03-31T22:37:53;1.40;;;0.60;;
28311;SDS011;15572;48.810;9.148;2023-03-31T22:42:50;5.43;;;1.00;;
28311;SDS011;15572;48.810;9.148;2023-03-31T22:47:48;2.30;;;0.80;;
28311;SDS011;15572;48.810;9.148;2023-03-31T22:52:46;1.67;;;0.70;;
28311;SDS011;15572;48.810;9.148;2023-03-31T22:57:43;3.53;;;0.80;;
28311;SDS011;15572;48.810;9.148;2023-03-31T23:02:39;1.60;;;0.77;;
28311;SDS011;15572;48.810;9.148;2023-03-31T23:07:36;2.03;;;0.60;;
28311;SDS011;15572;48.810;9.148;2023-03-31T23:12:34;2.90;;;0.70;;
28311;SDS011;15572;48.810;9.148;2023-03-31T23:17:30;1.57;;;0.87;;
28311;SDS011;15572;48.810;9.148;2023-03-31T23:22:27;1.57;;;0.70;;
28311;SDS011;15572;48.810;9.148;2023-03-31T23:27:23;2.73;;;0.70;;
28311;SDS011;15572;48.810;9.148;2023-03-31T23:32:21;2.63;;;0.60;;
28311;SDS011;15572;48.810;9.148;2023-03-31T23:37:17;3.10;;;0.50;;
28311;SDS011;15572;48.810;9.148;2023-03-31T23:42:14;3.10;;;0.60;;
28311;SDS011;15572;48.810;9.148;2023-03-31T23:47:14;2.27;;;0.70;;
28311;SDS011;15572;48.810;9.148;2023-03-31T23:52:12;2.73;;;0.53;;
28311;SDS011;15572;48.810;9.148;2023-03-31T23:57:08;1.70;;;0.70;;
